createdAt,value
2019-02-05T00:09:16.055Z,57.50
2019-02-05T00:13:21.810Z,57.60
2019-02-05T00:17:27.495Z,57.70
2019-02-05T00:21:33.188Z,57.00
2019-02-05T00:25:38.856Z,57.50
2019-02-05T00:29:45.027Z,57.10
2019-02-05T00:33:50.729Z,57.20
2019-02-05T00:38:17.187Z,57.00
2019-02-05T00:42:23.272Z,56.00
2019-02-05T00:46:28.987Z,56.90
2019-02-05T00:50:34.659Z,56.60
2019-02-05T00:54:40.359Z,56.00
2019-02-05T00:59:19.459Z,55.80
2019-02-05T01:08:22.138Z,55.40
2019-02-05T01:12:28.793Z,55.40
2019-02-05T01:16:34.502Z,54.70
2019-02-05T01:20:40.485Z,55.00
2019-02-05T01:24:46.196Z,55.80
2019-02-05T01:28:51.888Z,55.80
2019-02-05T01:33:16.077Z,55.60
2019-02-05T01:37:21.755Z,55.70
2019-02-05T01:41:27.628Z,55.40
2019-02-05T01:45:33.381Z,55.40
2019-02-05T01:49:39.139Z,55.70
2019-02-05T01:53:44.814Z,55.80
2019-02-05T01:57:50.650Z,55.30
2019-02-05T02:01:56.358Z,55.20
2019-02-05T02:06:02.050Z,55.70
2019-02-05T02:10:26.507Z,55.30
2019-02-05T02:14:32.216Z,55.50
2019-02-05T02:18:37.886Z,55.40
2019-02-05T02:23:16.934Z,55.60
2019-02-05T02:27:22.630Z,55.80
2019-02-05T02:31:28.599Z,55.80
2019-02-05T02:35:34.595Z,55.80
2019-02-05T02:39:41.240Z,55.80
2019-02-05T02:43:46.921Z,55.60
2019-02-05T02:47:54.260Z,55.80
2019-02-05T02:51:59.940Z,55.80
2019-02-05T02:56:17.747Z,55.70
2019-02-05T03:00:24.424Z,55.70
2019-02-05T03:04:30.597Z,56.40
2019-02-05T03:08:36.422Z,56.90
2019-02-05T03:12:42.383Z,56.50
2019-02-05T03:16:48.074Z,56.40
2019-02-05T03:25:23.975Z,56.80
2019-02-05T03:29:29.664Z,57.20
2019-02-05T03:44:19.613Z,58.00
2019-02-05T03:48:25.696Z,57.60
2019-02-05T03:52:36.082Z,57.50
2019-02-05T03:57:30.452Z,57.50
2019-02-05T04:02:16.181Z,57.20
2019-02-05T04:07:17.019Z,57.80
2019-02-05T04:11:33.310Z,56.60
2019-02-05T04:15:55.219Z,57.10
2019-02-05T04:20:14.417Z,57.40
2019-02-05T04:24:36.793Z,57.80
2019-02-05T04:29:09.913Z,58.10
2019-02-05T04:33:36.114Z,58.70
2019-02-05T04:37:58.198Z,57.90
2019-02-05T04:42:29.169Z,58.50
2019-02-05T04:47:03.211Z,59.70
2019-02-05T04:51:16.206Z,58.90
2019-02-05T04:56:01.445Z,59.50
2019-02-05T05:00:48.036Z,60.00
2019-02-05T05:05:03.847Z,59.30
2019-02-05T05:09:16.803Z,60.50
2019-02-05T05:13:22.532Z,59.70
2019-02-05T05:17:28.573Z,60.60
2019-02-05T05:21:34.393Z,60.30
2019-02-05T05:25:40.312Z,60.60
2019-02-05T05:29:46.724Z,60.60
2019-02-05T05:33:52.417Z,60.90
2019-02-05T05:37:58.288Z,61.60
2019-02-05T05:42:03.991Z,61.80
2019-02-05T05:46:09.664Z,61.40
2019-02-05T05:50:16.458Z,61.10
2019-02-05T05:54:22.135Z,60.90
2019-02-05T05:58:27.895Z,59.90
2019-02-05T06:02:33.954Z,59.10
2019-02-05T06:06:39.628Z,59.30
2019-02-05T06:10:45.383Z,61.10
2019-02-05T06:14:51.092Z,63.10
2019-02-05T06:18:56.812Z,61.70
2019-02-05T06:23:02.497Z,62.70
2019-02-05T06:27:08.255Z,61.90
2019-02-05T06:31:13.948Z,61.40
2019-02-05T06:35:19.647Z,62.60
2019-02-05T06:39:25.466Z,61.70
2019-02-05T06:43:31.152Z,62.30
2019-02-05T06:47:37.098Z,62.60
2019-02-05T06:51:42.868Z,61.40
2019-02-05T06:55:49.544Z,61.90
2019-02-05T06:59:55.239Z,62.30
2019-02-05T07:04:00.916Z,62.30
2019-02-05T07:08:06.784Z,61.90
2019-02-05T07:12:12.614Z,61.10
2019-02-05T07:16:18.388Z,60.50
2019-02-05T07:20:24.188Z,61.20
2019-02-05T07:24:30.240Z,60.50
2019-02-05T07:28:36.904Z,61.50
2019-02-05T07:32:42.598Z,59.90
2019-02-05T07:36:48.290Z,59.50
2019-02-05T07:40:53.994Z,61.20
2019-02-05T07:44:59.666Z,60.70
2019-02-05T07:49:05.431Z,60.20
2019-02-05T07:53:11.269Z,60.20
2019-02-05T07:57:17.069Z,63.20
2019-02-05T08:01:22.762Z,64.10
2019-02-05T08:05:36.144Z,62.00
2019-02-05T08:09:41.817Z,60.50
2019-02-05T08:13:47.512Z,62.70
2019-02-05T08:17:53.636Z,60.70
2019-02-05T08:21:59.321Z,59.70
2019-02-05T08:26:05.531Z,59.10
2019-02-05T08:30:24.524Z,58.70
2019-02-05T08:34:30.645Z,58.10
2019-02-05T08:38:36.441Z,57.40
2019-02-05T08:42:42.131Z,59.40
2019-02-05T08:46:47.807Z,58.10
2019-02-05T08:50:55.296Z,58.80
2019-02-05T08:55:01.003Z,60.00
2019-02-05T08:59:06.927Z,61.60
2019-02-05T09:03:13.517Z,61.10
2019-02-05T09:07:19.208Z,59.60
2019-02-05T09:11:24.977Z,53.00
2019-02-05T09:15:30.669Z,50.40
2019-02-05T09:19:36.359Z,51.30
2019-02-05T09:23:42.082Z,51.50
2019-02-05T09:27:47.775Z,47.60
2019-02-05T09:31:54.528Z,45.60
2019-02-05T09:36:00.235Z,40.00
2019-02-05T09:40:17.147Z,36.60
2019-02-05T09:44:22.918Z,36.70
2019-02-05T09:48:28.619Z,36.30
2019-02-05T09:52:34.319Z,37.10
2019-02-05T09:56:40.030Z,38.50
2019-02-05T10:00:45.810Z,36.20
2019-02-05T10:04:51.488Z,36.60
2019-02-05T10:08:57.206Z,33.50
2019-02-05T10:13:02.979Z,33.80
2019-02-05T10:17:08.862Z,34.20
2019-02-05T10:21:14.632Z,34.50
2019-02-05T10:25:20.531Z,33.80
2019-02-05T10:29:26.245Z,31.60
2019-02-05T10:33:32.273Z,30.00
2019-02-05T10:37:38.036Z,32.50
2019-02-05T10:41:43.741Z,34.00
2019-02-05T10:45:49.515Z,33.50
2019-02-05T10:49:55.195Z,33.70
2019-02-05T10:54:00.901Z,35.50
2019-02-05T10:58:07.217Z,37.00
2019-02-05T11:07:43.518Z,34.10
2019-02-05T11:11:49.204Z,34.70
2019-02-05T11:15:54.976Z,35.40
2019-02-05T11:20:00.672Z,33.20
2019-02-05T11:24:06.675Z,28.30
2019-02-05T11:28:12.449Z,26.40
2019-02-05T11:32:18.213Z,25.00
2019-02-05T11:36:23.993Z,24.20
2019-02-05T11:40:33.946Z,23.30
2019-02-05T11:44:39.637Z,22.70
2019-02-05T11:48:45.595Z,22.70
2019-02-05T11:52:51.365Z,22.10
2019-02-05T11:56:57.080Z,20.80
2019-02-05T12:01:04.044Z,20.40
2019-02-05T12:05:09.992Z,20.80
2019-02-05T12:09:20.910Z,21.60
2019-02-05T12:13:26.612Z,22.80
2019-02-05T12:17:32.341Z,23.30
2019-02-05T12:21:38.176Z,23.50
2019-02-05T12:25:44.434Z,25.80
2019-02-05T12:29:50.191Z,24.60
2019-02-05T12:33:56.265Z,23.90
2019-02-05T12:38:02.106Z,25.00
2019-02-05T12:42:07.803Z,23.20
2019-02-05T12:46:13.607Z,24.00
2019-02-05T12:50:22.879Z,26.50
2019-02-05T12:54:28.583Z,26.20
2019-02-05T12:58:34.391Z,25.10
2019-02-05T13:02:41.065Z,24.20
2019-02-05T13:06:46.897Z,23.70
2019-02-05T13:10:53.515Z,27.80
2019-02-05T13:14:59.223Z,28.60
2019-02-05T13:19:05.339Z,29.20
2019-02-05T13:23:10.993Z,27.80
2019-02-05T13:27:16.672Z,26.10
2019-02-05T13:31:22.386Z,27.90
2019-02-05T13:35:29.112Z,24.80
2019-02-05T13:39:35.052Z,25.60
2019-02-05T13:43:40.755Z,29.70
2019-02-05T13:47:46.485Z,30.10
2019-02-05T13:51:52.258Z,30.40
2019-02-05T13:55:58.031Z,31.90
2019-02-05T14:00:05.827Z,36.20
2019-02-05T14:04:11.523Z,35.00
2019-02-05T14:08:17.413Z,35.30
2019-02-05T14:12:42.468Z,35.20
2019-02-05T14:16:48.251Z,35.40
2019-02-05T14:20:54.043Z,33.50
2019-02-05T14:24:59.734Z,36.70
2019-02-05T14:29:05.499Z,35.10
2019-02-05T14:33:11.452Z,33.80
2019-02-05T14:37:17.153Z,33.60
2019-02-05T14:41:22.897Z,35.10
2019-02-05T14:45:28.598Z,36.40
2019-02-05T14:49:35.745Z,34.00
2019-02-05T14:53:41.458Z,35.40
2019-02-05T14:57:47.351Z,37.40
2019-02-05T15:01:53.131Z,35.60
2019-02-05T15:05:58.823Z,37.90
2019-02-05T15:10:10.321Z,35.30
2019-02-05T15:14:16.017Z,34.20
2019-02-05T15:18:21.962Z,35.20
2019-02-05T15:22:27.918Z,33.40
2019-02-05T15:26:33.619Z,35.80
2019-02-05T15:30:42.021Z,33.30
2019-02-05T15:34:47.713Z,34.70
2019-02-05T15:38:53.397Z,36.70
2019-02-05T15:42:59.067Z,36.10
2019-02-05T15:47:04.999Z,36.10
2019-02-05T15:51:10.638Z,37.40
2019-02-05T15:55:20.928Z,38.10
2019-02-05T15:59:25.221Z,39.00
2019-02-05T16:03:30.889Z,39.10
2019-02-05T16:07:37.355Z,39.60
2019-02-05T16:11:43.266Z,39.60
2019-02-05T16:15:49.940Z,39.40
2019-02-05T16:19:55.599Z,39.90
2019-02-05T16:24:01.282Z,40.40
2019-02-05T16:28:07.059Z,40.30
2019-02-05T16:32:17.801Z,42.30
2019-02-05T16:36:20.280Z,44.90
2019-02-05T16:40:32.917Z,45.70
2019-02-05T16:44:38.599Z,44.40
2019-02-05T16:48:44.288Z,45.20
2019-02-05T16:52:51.096Z,43.70
2019-02-05T16:56:56.808Z,42.60
2019-02-05T17:01:02.551Z,42.00
2019-02-05T17:05:08.929Z,42.00
2019-02-05T17:09:16.284Z,42.20
2019-02-05T17:13:21.962Z,45.80
2019-02-05T17:17:27.668Z,45.30
2019-02-05T17:21:33.420Z,45.10
2019-02-05T17:25:39.202Z,46.80
2019-02-05T17:29:45.107Z,49.00
2019-02-05T17:33:50.738Z,48.40
2019-02-05T17:37:56.491Z,48.30
2019-02-05T17:42:02.183Z,49.20
2019-02-05T17:46:07.997Z,47.20
2019-02-05T17:50:14.073Z,48.50
2019-02-05T17:54:19.774Z,46.30
2019-02-05T17:58:26.994Z,51.50
2019-02-05T18:02:33.488Z,50.10
2019-02-05T18:06:40.549Z,51.00
2019-02-05T18:10:46.319Z,50.10
2019-02-05T18:14:51.996Z,51.00
2019-02-05T18:18:57.925Z,52.80
2019-02-05T18:23:03.936Z,55.40
2019-02-05T18:27:18.564Z,56.60
2019-02-05T18:31:24.736Z,53.40
2019-02-05T18:35:30.638Z,55.90
2019-02-05T18:39:36.320Z,56.00
2019-02-05T18:43:42.015Z,57.90
2019-02-05T18:47:48.284Z,54.30
2019-02-05T18:51:53.986Z,57.50
2019-02-05T18:55:59.655Z,49.20
2019-02-05T19:05:29.819Z,56.80
2019-02-05T19:09:35.526Z,54.70
2019-02-05T19:13:41.252Z,57.40
2019-02-05T19:22:38.679Z,54.70
2019-02-05T19:26:45.474Z,57.10
2019-02-05T19:30:52.868Z,54.80
2019-02-05T19:34:58.619Z,50.70
2019-02-05T19:39:06.695Z,55.30
2019-02-05T19:43:23.395Z,60.20
2019-02-05T19:47:29.144Z,63.00
2019-02-05T19:51:34.904Z,54.00
2019-02-05T19:55:41.964Z,50.70
2019-02-05T19:59:47.694Z,59.00
2019-02-05T20:04:17.267Z,56.80
2019-02-05T20:08:22.981Z,52.70
2019-02-05T20:12:28.676Z,56.90
2019-02-05T20:16:34.462Z,60.30
2019-02-05T20:20:40.146Z,63.00
2019-02-05T20:24:46.567Z,62.00
2019-02-05T20:28:52.365Z,61.30
2019-02-05T20:32:58.172Z,60.40
2019-02-05T20:37:03.937Z,56.90
2019-02-05T20:41:09.728Z,55.10
2019-02-05T20:45:17.014Z,52.80
2019-02-05T20:49:22.711Z,54.20
2019-02-05T20:53:47.824Z,55.30
2019-02-05T20:57:54.042Z,51.50
2019-02-05T21:02:19.377Z,52.40
2019-02-05T21:06:25.059Z,54.00
2019-02-05T21:10:33.676Z,54.10
2019-02-05T21:14:39.361Z,54.20
2019-02-05T21:18:45.222Z,53.70
2019-02-05T21:24:16.786Z,52.10
2019-02-05T21:57:15.966Z,54.30
2019-02-05T22:02:15.468Z,55.30
2019-02-05T22:12:18.827Z,57.20
2019-02-05T22:23:16.795Z,58.60
2019-02-05T22:48:19.844Z,54.50
2019-02-05T22:52:26.050Z,55.60
2019-02-05T22:57:16.955Z,55.90
2019-02-05T23:01:32.926Z,54.90
2019-02-05T23:06:16.349Z,54.90
2019-02-05T23:10:29.503Z,57.90
2019-02-05T23:14:35.195Z,54.10
2019-02-05T23:18:41.242Z,55.30
2019-02-05T23:22:47.045Z,54.60
2019-02-05T23:26:55.851Z,55.10
2019-02-05T23:31:01.621Z,56.70
2019-02-05T23:35:09.486Z,57.00
2019-02-05T23:39:15.314Z,56.50
2019-02-05T23:43:21.263Z,56.90
2019-02-05T23:47:27.213Z,57.50
2019-02-05T23:51:32.943Z,58.50
2019-02-05T23:55:38.706Z,58.10
2019-02-05T23:59:44.372Z,58.70
